Forside
METAR-TAF:

METAR-TAF

Lufthavne :

Waupaca Municipal Airport

Waupaca, Wisconsin, USA

Breddekreds: 44-20-01N, længdekreds: 089-00-55W, højde: 252 m

Aktuelle vejr

Denne rapport blev lavet for 19 minutter siden, kl. 06:35 UTC
Vind stille
Temperatur 14°C
Fugtighed 88%
Tryk 1020 hPa
Sigt: 16.1 km
skyfri

METAR: KPCZ 060635Z AUTO 00000KT 10SM CLR 14/12 A3011 RMK AO2 T01380119

Tid: 01:54 (06:54 UTC)


TAF: fraværende

Vejrobservationer og prognoser fra mere end 4000 lufthavne (METAR og TAF).

De gule og røde prikker repræsenterer de meteorologiske stationer.

Flyt musen over at se navnet på stationen.

Så klik over at se vejr observationer og prognoser.

At skifte det kort: Klik på de grønne knapper med et sort kors for at zoome ind; på den grønne knap med en bindestreg for at zoome ud; eller på de grønne pile for tilstødende kort.


METAR-TAF: